createdAt,value
2023-03-27T00:02:44.835Z,21.46
2023-03-27T00:06:44.867Z,21.43
2023-03-27T00:10:44.986Z,21.43
2023-03-27T00:14:45.097Z,21.43
2023-03-27T00:18:45.257Z,21.43
2023-03-27T00:22:45.334Z,21.43
2023-03-27T00:26:45.455Z,21.44
2023-03-27T00:30:45.608Z,21.41
2023-03-27T00:34:45.638Z,21.43
2023-03-27T00:38:45.872Z,21.39
2023-03-27T00:42:45.859Z,21.40
2023-03-27T00:46:46.019Z,21.39
2023-03-27T00:50:46.123Z,21.37
2023-03-27T00:54:46.236Z,21.37
2023-03-27T00:58:46.309Z,21.36
2023-03-27T01:02:46.543Z,21.37
2023-03-27T01:06:46.536Z,21.39
2023-03-27T01:10:46.658Z,21.36
2023-03-27T01:14:46.882Z,21.36
2023-03-27T01:18:46.928Z,21.34
2023-03-27T01:22:47.039Z,21.33
2023-03-27T01:26:47.140Z,21.33
2023-03-27T01:30:47.304Z,21.31
2023-03-27T01:34:47.441Z,21.30
2023-03-27T01:38:48.413Z,21.30
2023-03-27T01:42:47.342Z,21.30
2023-03-27T01:46:47.360Z,21.29
2023-03-27T01:50:47.451Z,21.31
2023-03-27T01:54:47.561Z,21.29
2023-03-27T01:58:47.711Z,21.27
2023-03-27T02:02:47.907Z,21.29
2023-03-27T02:06:48.030Z,21.26
2023-03-27T02:10:48.134Z,21.26
2023-03-27T02:14:48.264Z,21.25
2023-03-27T02:18:48.430Z,21.27
2023-03-27T02:22:48.577Z,21.23
2023-03-27T02:26:48.772Z,21.23
2023-03-27T02:31:06.779Z,21.23
2023-03-27T02:34:49.845Z,21.22
2023-03-27T02:38:48.897Z,21.23
2023-03-27T02:42:48.820Z,21.19
2023-03-27T02:46:49.000Z,21.20
2023-03-27T02:50:49.155Z,21.19
2023-03-27T02:54:49.336Z,21.17
2023-03-27T02:58:49.468Z,21.17
2023-03-27T03:02:49.714Z,21.16
2023-03-27T03:06:49.854Z,21.14
2023-03-27T03:10:49.993Z,21.13
2023-03-27T03:14:50.131Z,21.16
2023-03-27T03:18:50.408Z,21.11
2023-03-27T03:22:50.498Z,21.13
2023-03-27T03:26:50.645Z,21.11
2023-03-27T03:30:50.843Z,21.14
2023-03-27T03:34:51.012Z,21.14
2023-03-27T03:38:51.139Z,21.13
2023-03-27T03:42:51.326Z,21.14
2023-03-27T03:46:51.502Z,21.13
2023-03-27T03:50:51.647Z,21.16
2023-03-27T03:54:51.836Z,21.13
2023-03-27T03:58:52.023Z,21.13
2023-03-27T04:02:52.315Z,21.11
2023-03-27T04:06:52.385Z,21.11
2023-03-27T04:10:52.563Z,21.09
2023-03-27T04:14:52.734Z,21.09
2023-03-27T04:18:53.025Z,21.07
2023-03-27T04:22:54.286Z,21.06
2023-03-27T04:26:53.092Z,21.06
2023-03-27T04:30:53.055Z,21.04
2023-03-27T04:34:53.146Z,21.04
2023-03-27T04:38:53.343Z,21.03
2023-03-27T04:42:53.515Z,21.00
2023-03-27T04:46:53.806Z,21.02
2023-03-27T04:50:54.048Z,21.04
2023-03-27T04:54:54.106Z,21.10
2023-03-27T04:58:54.295Z,21.16
2023-03-27T05:02:54.498Z,21.26
2023-03-27T05:06:54.535Z,21.33
2023-03-27T05:10:54.727Z,21.37
2023-03-27T05:14:54.709Z,21.39
2023-03-27T05:18:54.783Z,21.41
2023-03-27T05:22:54.845Z,21.49
2023-03-27T05:26:54.947Z,21.47
2023-03-27T05:30:55.300Z,21.53
2023-03-27T05:34:55.049Z,21.53
2023-03-27T05:38:55.068Z,21.58
2023-03-27T05:42:55.431Z,21.60
2023-03-27T05:46:55.453Z,21.63
2023-03-27T05:50:55.335Z,21.73
2023-03-27T05:54:55.439Z,21.86
2023-03-27T05:58:55.430Z,21.86
2023-03-27T06:02:55.504Z,22.03
2023-03-27T06:06:55.305Z,22.21
2023-03-27T06:10:55.573Z,22.41
2023-03-27T06:14:55.239Z,22.54
2023-03-27T06:18:55.184Z,22.67
2023-03-27T06:22:55.114Z,22.76
2023-03-27T06:26:55.095Z,22.88
2023-03-27T06:30:55.081Z,23.02
2023-03-27T06:34:55.047Z,23.09
2023-03-27T06:38:54.970Z,23.25
2023-03-27T06:42:54.947Z,23.31
2023-03-27T06:46:54.968Z,23.37
2023-03-27T06:50:55.136Z,23.42
2023-03-27T06:54:54.827Z,23.48
2023-03-27T06:58:54.821Z,23.49
2023-03-27T07:02:55.044Z,23.54
2023-03-27T07:06:54.709Z,23.54
2023-03-27T07:14:54.650Z,23.70
2023-03-27T07:18:54.950Z,23.73
2023-03-27T07:22:56.451Z,23.78
2023-03-27T07:26:54.538Z,23.80
2023-03-27T07:30:55.355Z,23.89
2023-03-27T07:34:54.728Z,23.90
2023-03-27T07:38:55.031Z,23.95
2023-03-27T07:42:55.089Z,23.98
2023-03-27T07:46:55.483Z,23.93
2023-03-27T07:50:58.199Z,23.92
2023-03-27T07:54:56.469Z,23.88
2023-03-27T07:58:55.403Z,23.82
2023-03-27T08:02:55.451Z,23.73
2023-03-27T08:06:55.384Z,23.70
2023-03-27T08:10:55.276Z,23.66
2023-03-27T08:14:55.489Z,23.62
2023-03-27T08:18:55.217Z,23.59
2023-03-27T08:22:55.480Z,23.56
2023-03-27T08:26:55.984Z,23.52
2023-03-27T08:30:55.465Z,23.51
2023-03-27T08:34:56.181Z,23.48
2023-03-27T08:38:55.410Z,23.46
2023-03-27T08:42:55.502Z,23.55
2023-03-27T08:46:55.528Z,23.62
2023-03-27T08:50:55.528Z,23.64
2023-03-27T08:54:55.343Z,23.73
2023-03-27T08:58:55.512Z,23.85
2023-03-27T09:02:55.362Z,23.96
2023-03-27T09:06:55.213Z,24.03
2023-03-27T09:10:55.505Z,24.09
2023-03-27T09:14:55.181Z,24.09
2023-03-27T09:18:55.122Z,24.16
2023-03-27T09:22:55.516Z,24.19
2023-03-27T09:27:06.370Z,24.25
2023-03-27T09:30:56.042Z,24.29
2023-03-27T09:34:55.010Z,24.32
2023-03-27T09:38:54.994Z,24.38
2023-03-27T09:42:55.511Z,24.40
2023-03-27T09:46:54.846Z,24.36
2023-03-27T09:50:55.204Z,24.38
2023-03-27T09:54:55.021Z,24.40
2023-03-27T09:58:55.025Z,24.38
2023-03-27T10:02:55.042Z,24.42
2023-03-27T10:06:55.544Z,24.44
2023-03-27T10:10:55.255Z,24.46
2023-03-27T10:14:55.555Z,24.50
2023-03-27T10:18:55.118Z,24.53
2023-03-27T10:22:55.068Z,24.63
2023-03-27T10:26:55.097Z,24.67
2023-03-27T10:30:55.729Z,24.70
2023-03-27T10:34:55.065Z,24.73
2023-03-27T10:38:55.555Z,24.64
2023-03-27T10:42:55.538Z,24.63
2023-03-27T10:46:55.102Z,24.62
2023-03-27T10:50:55.167Z,24.67
2023-03-27T10:54:55.079Z,24.72
2023-03-27T10:58:55.557Z,24.82
2023-03-27T11:02:55.103Z,24.90
2023-03-27T11:06:55.040Z,24.96
2023-03-27T11:10:55.120Z,25.02
2023-03-27T11:14:55.044Z,25.06
2023-03-27T11:18:55.042Z,25.06
2023-03-27T11:22:55.045Z,25.10
2023-03-27T11:26:55.004Z,25.16
2023-03-27T11:30:55.675Z,25.10
2023-03-27T11:34:55.564Z,25.13
2023-03-27T11:38:55.547Z,25.09
2023-03-27T11:42:55.246Z,25.05
2023-03-27T11:46:55.569Z,24.96
2023-03-27T11:50:55.517Z,24.89
2023-03-27T11:54:55.297Z,24.89
2023-03-27T11:58:55.285Z,24.83
2023-03-27T12:02:55.365Z,24.82
2023-03-27T12:06:55.648Z,24.80
2023-03-27T12:10:55.474Z,24.73
2023-03-27T12:14:55.423Z,24.69
2023-03-27T12:19:03.945Z,24.70
2023-03-27T12:22:56.563Z,24.70
2023-03-27T12:26:55.397Z,24.72
2023-03-27T12:30:57.304Z,24.76
2023-03-27T12:34:55.313Z,24.70
2023-03-27T12:38:55.270Z,24.63
2023-03-27T12:42:55.200Z,24.58
2023-03-27T12:46:55.253Z,24.55
2023-03-27T12:50:55.563Z,24.49
2023-03-27T12:54:55.384Z,24.48
2023-03-27T12:58:55.508Z,24.42
2023-03-27T13:02:55.637Z,24.35
2023-03-27T13:06:55.688Z,24.36
2023-03-27T13:10:55.982Z,24.35
2023-03-27T13:14:55.918Z,24.33
2023-03-27T13:18:56.051Z,24.33
2023-03-27T13:22:56.205Z,24.30
2023-03-27T13:26:56.310Z,24.27
2023-03-27T13:30:56.498Z,24.27
2023-03-27T13:34:56.567Z,24.27
2023-03-27T13:38:56.724Z,24.27
2023-03-27T13:42:56.812Z,24.26
2023-03-27T13:46:57.004Z,24.26
2023-03-27T13:50:57.104Z,24.25
2023-03-27T13:54:57.296Z,24.23
2023-03-27T13:58:57.389Z,24.23
2023-03-27T14:02:57.656Z,24.26
2023-03-27T14:06:57.652Z,24.23
2023-03-27T14:10:57.771Z,24.23
2023-03-27T14:14:58.126Z,24.19
2023-03-27T14:18:58.101Z,24.17
2023-03-27T14:22:58.208Z,24.16
2023-03-27T14:26:58.366Z,24.17
2023-03-27T14:30:58.548Z,24.15
2023-03-27T14:34:58.647Z,24.11
2023-03-27T14:38:58.850Z,24.09
2023-03-27T14:42:59.019Z,24.08
2023-03-27T14:46:59.171Z,24.11
2023-03-27T14:50:59.632Z,24.11
2023-03-27T14:54:59.510Z,24.11
2023-03-27T14:58:59.746Z,24.11
2023-03-27T15:03:00.123Z,24.12
2023-03-27T15:07:00.108Z,24.11
2023-03-27T15:11:00.344Z,24.11
2023-03-27T15:15:00.475Z,24.06
2023-03-27T15:19:00.694Z,24.03
2023-03-27T15:23:00.902Z,24.06
2023-03-27T15:27:01.097Z,24.06
2023-03-27T15:31:01.390Z,24.05
2023-03-27T15:35:01.504Z,24.03
2023-03-27T15:39:01.757Z,24.01
2023-03-27T15:43:01.942Z,24.01
2023-03-27T15:47:02.005Z,24.01
2023-03-27T15:51:01.905Z,23.98
2023-03-27T15:55:01.859Z,23.98
2023-03-27T15:59:01.811Z,23.95
2023-03-27T16:03:02.322Z,23.95
2023-03-27T16:07:01.729Z,23.95
2023-03-27T16:11:01.653Z,23.95
2023-03-27T16:15:01.671Z,23.92
2023-03-27T16:19:01.581Z,23.96
2023-03-27T16:23:01.683Z,23.95
2023-03-27T16:27:01.607Z,23.93
2023-03-27T16:31:01.542Z,23.93
2023-03-27T16:35:01.505Z,23.93
2023-03-27T16:39:01.491Z,23.92
2023-03-27T16:43:01.473Z,23.90
2023-03-27T16:47:01.438Z,23.88
2023-03-27T16:51:01.373Z,23.88
2023-03-27T16:55:01.355Z,23.86
2023-03-27T16:59:01.310Z,23.88
2023-03-27T17:03:01.446Z,23.86
2023-03-27T17:07:01.328Z,23.83
2023-03-27T17:11:01.316Z,23.85
2023-03-27T17:15:01.251Z,23.86
2023-03-27T17:19:01.239Z,23.82
2023-03-27T17:23:01.173Z,23.82
2023-03-27T17:27:01.164Z,23.79
2023-03-27T17:31:04.701Z,23.76
2023-03-27T17:35:01.074Z,23.76
2023-03-27T17:39:01.026Z,23.73
2023-03-27T17:43:01.011Z,23.72
2023-03-27T17:47:01.074Z,23.69
2023-03-27T17:51:08.738Z,23.68
2023-03-27T17:55:01.864Z,23.65
2023-03-27T17:59:00.844Z,23.66
2023-03-27T18:03:00.847Z,23.65
2023-03-27T18:07:00.788Z,23.62
2023-03-27T18:11:00.800Z,23.61
2023-03-27T18:15:00.776Z,23.59
2023-03-27T18:19:00.784Z,23.58
2023-03-27T18:23:00.770Z,23.58
2023-03-27T18:27:00.723Z,23.55
2023-03-27T18:31:00.735Z,23.54
2023-03-27T18:35:00.782Z,23.51
2023-03-27T18:39:00.797Z,23.49
2023-03-27T18:43:00.883Z,23.49
2023-03-27T18:47:00.786Z,23.49
2023-03-27T18:51:00.795Z,23.48
2023-03-27T18:55:00.764Z,23.48
2023-03-27T18:59:00.762Z,23.45
2023-03-27T19:03:00.763Z,23.46
2023-03-27T19:07:00.762Z,23.45
2023-03-27T19:11:00.976Z,23.45
2023-03-27T19:15:09.740Z,23.40
2023-03-27T19:19:01.672Z,23.41
2023-03-27T19:23:00.666Z,23.40
2023-03-27T19:27:00.598Z,23.38
2023-03-27T19:31:00.651Z,23.37
2023-03-27T19:35:00.505Z,23.35
2023-03-27T19:39:00.452Z,23.37
2023-03-27T19:43:00.402Z,23.35
2023-03-27T19:47:00.424Z,23.37
2023-03-27T19:51:00.365Z,23.35
2023-03-27T19:55:00.366Z,23.33
2023-03-27T19:59:00.325Z,23.32
2023-03-27T20:03:00.404Z,23.32
2023-03-27T20:07:00.329Z,23.29
2023-03-27T20:11:00.733Z,23.29
2023-03-27T20:15:11.104Z,23.26
2023-03-27T20:19:01.346Z,23.26
2023-03-27T20:23:00.294Z,23.23
2023-03-27T20:27:00.213Z,23.25
2023-03-27T20:31:00.262Z,23.25
2023-03-27T20:35:03.351Z,23.22
2023-03-27T20:39:01.119Z,23.25
2023-03-27T20:43:00.065Z,23.23
2023-03-27T20:47:00.214Z,23.22
2023-03-27T20:51:00.034Z,23.21
2023-03-27T20:54:59.973Z,23.23
2023-03-27T20:58:59.987Z,23.22
2023-03-27T21:03:00.132Z,23.19
2023-03-27T21:06:59.995Z,23.18
2023-03-27T21:11:00.037Z,23.18
2023-03-27T21:15:00.115Z,23.18
2023-03-27T21:19:00.163Z,23.15
2023-03-27T21:23:00.179Z,23.15
2023-03-27T21:27:00.282Z,23.15
2023-03-27T21:31:00.324Z,23.11
2023-03-27T21:35:00.370Z,23.12
2023-03-27T21:39:00.381Z,23.12
2023-03-27T21:43:00.482Z,23.11
2023-03-27T21:47:00.562Z,23.11
2023-03-27T21:51:00.572Z,23.11
2023-03-27T21:55:03.377Z,23.11
2023-03-27T21:59:00.615Z,23.11
2023-03-27T22:03:00.828Z,23.09
2023-03-27T22:07:00.506Z,23.07
2023-03-27T22:11:00.509Z,23.08
2023-03-27T22:15:00.480Z,23.05
2023-03-27T22:19:00.423Z,23.05
2023-03-27T22:23:00.386Z,23.05
2023-03-27T22:27:00.330Z,23.04
2023-03-27T22:31:00.315Z,23.02
2023-03-27T22:35:00.250Z,23.04
2023-03-27T22:39:00.234Z,23.04
2023-03-27T22:43:00.221Z,23.02
2023-03-27T22:47:00.334Z,23.02
2023-03-27T22:51:00.103Z,23.01
2023-03-27T22:55:00.099Z,23.01
2023-03-27T22:59:00.019Z,22.99
2023-03-27T23:03:00.045Z,22.99
2023-03-27T23:06:59.961Z,22.99
2023-03-27T23:10:59.906Z,22.98
2023-03-27T23:14:59.974Z,22.95
2023-03-27T23:19:00.049Z,22.97
2023-03-27T23:23:00.125Z,22.94
2023-03-27T23:27:00.215Z,22.97
2023-03-27T23:31:00.306Z,22.97
2023-03-27T23:35:00.451Z,22.94
2023-03-27T23:39:00.541Z,22.94
2023-03-27T23:43:00.703Z,22.95
2023-03-27T23:47:00.797Z,22.93
2023-03-27T23:51:01.036Z,22.91
2023-03-27T23:55:01.101Z,22.94
2023-03-27T23:59:01.216Z,22.93
